Mackinac Island, Michigan
Current Conditions -  °F | °C
As of 4:16 PM on Tuesday 27 Jan 2015 (Local Time) from KMCD Reporting Station
Clear Clear  
Wind Chill: 19°   Ceiling: Unl
Heat Index: 19°   Visibility: 10mi
Dew Point: -5°   Wind: 0mph
Humidity: 35%   Direction: NA
Pressure: 30.23"   Gusts: NA
Location:  45.85°N, 84.62°W
Report Text: KMCD 272116Z AUTO 00000KT 10SM CLR M07/M20 A3023 RMK AO2 T10701203
Loading
Personal Weather Stations






























Interactive Weather Map New forecast layout! Learn more

10-Day Weather Forecast

Advertisements
Track Severe Weather on mobile